createdAt,value
2019-02-18T00:01:52.001Z,101852.42
2019-02-18T00:06:55.861Z,101852.31
2019-02-18T00:11:59.675Z,101851.77
2019-02-18T00:17:03.556Z,101849.50
2019-02-18T00:22:07.345Z,101851.50
2019-02-18T00:27:11.205Z,101857.08
2019-02-18T00:32:15.041Z,101855.74
2019-02-18T00:37:24.462Z,101853.98
2019-02-18T00:42:24.752Z,101859.46
2019-02-18T00:47:28.581Z,101856.69
2019-02-18T00:52:32.385Z,101850.49
2019-02-18T00:57:36.249Z,101856.94
2019-02-18T01:02:40.056Z,101852.08
2019-02-18T01:07:43.857Z,101855.92
2019-02-18T01:12:47.824Z,101857.58
2019-02-18T01:17:51.925Z,101863.95
2019-02-18T01:22:55.765Z,101869.01
2019-02-18T01:27:59.955Z,101866.30
2019-02-18T01:33:03.880Z,101855.72
2019-02-18T01:38:07.749Z,101856.95
2019-02-18T01:43:11.623Z,101859.86
2019-02-18T01:48:15.515Z,101855.84
2019-02-18T01:53:19.419Z,101858.73
2019-02-18T01:58:23.552Z,101857.73
2019-02-18T02:03:27.452Z,101855.84
2019-02-18T02:08:31.259Z,101854.04
2019-02-18T02:13:36.507Z,101850.48
2019-02-18T02:18:40.471Z,101852.48
2019-02-18T02:23:44.262Z,101853.28
2019-02-18T02:28:48.214Z,101849.38
2019-02-18T02:33:52.020Z,101852.73
2019-02-18T02:38:55.825Z,101840.47
2019-02-18T02:43:59.617Z,101842.11
2019-02-18T02:49:03.406Z,101828.09
2019-02-18T02:54:07.210Z,101828.75
2019-02-18T02:59:11.032Z,101824.25
2019-02-18T03:04:14.819Z,101816.89
2019-02-18T03:09:18.621Z,101813.82
2019-02-18T03:14:22.520Z,101807.23
2019-02-18T03:19:26.331Z,101803.20
2019-02-18T03:24:30.157Z,101811.36
2019-02-18T03:30:15.118Z,101809.96
2019-02-18T03:35:18.973Z,101803.00
2019-02-18T03:40:22.863Z,101819.66
2019-02-18T03:45:26.690Z,101822.56
2019-02-18T03:50:30.567Z,101816.44
2019-02-18T03:55:34.509Z,101821.59
2019-02-18T04:00:38.389Z,101825.80
2019-02-18T04:05:42.329Z,101825.60
2019-02-18T04:10:46.312Z,101828.45
2019-02-18T04:15:50.125Z,101817.55
2019-02-18T04:20:53.935Z,101822.22
2019-02-18T04:25:57.745Z,101824.66
2019-02-18T04:31:01.602Z,101821.97
2019-02-18T04:36:05.423Z,101816.25
2019-02-18T04:41:09.331Z,101810.48
2019-02-18T04:46:13.121Z,101822.09
2019-02-18T04:51:16.943Z,101820.22
2019-02-18T04:56:20.735Z,101821.52
2019-02-18T05:01:24.695Z,101812.69
2019-02-18T05:06:28.553Z,101808.47
2019-02-18T05:11:32.413Z,101804.94
2019-02-18T05:16:36.201Z,101804.89
2019-02-18T05:21:40.091Z,101802.53
2019-02-18T05:26:43.916Z,101807.84
2019-02-18T05:31:47.783Z,101808.74
2019-02-18T05:36:51.704Z,101808.45
2019-02-18T05:41:55.596Z,101802.84
2019-02-18T05:46:59.409Z,101792.42
2019-02-18T05:52:03.311Z,101795.58
2019-02-18T05:57:07.130Z,101792.17
2019-02-18T06:02:10.919Z,101784.27
2019-02-18T06:07:14.730Z,101787.28
2019-02-18T06:12:18.789Z,101780.73
2019-02-18T06:17:22.687Z,101783.28
2019-02-18T06:22:26.533Z,101784.94
2019-02-18T06:27:30.507Z,101784.88
2019-02-18T06:32:34.331Z,101785.16
2019-02-18T06:37:38.265Z,101787.64
2019-02-18T06:42:42.059Z,101787.94
2019-02-18T06:47:45.923Z,101781.33
2019-02-18T06:52:49.711Z,101769.85
2019-02-18T06:58:04.060Z,101778.87
2019-02-18T07:03:28.011Z,101771.56
2019-02-18T07:08:51.655Z,101779.63
2019-02-18T07:13:58.453Z,101775.97
2019-02-18T07:19:02.287Z,101779.91
2019-02-18T07:24:06.139Z,101784.32
2019-02-18T07:29:09.985Z,101779.57
2019-02-18T07:34:14.043Z,101774.80
2019-02-18T07:39:17.859Z,101775.68
2019-02-18T07:44:21.725Z,101770.61
2019-02-18T07:49:25.706Z,101770.38
2019-02-18T07:54:29.589Z,101784.37
2019-02-18T07:59:33.381Z,101784.05
2019-02-18T08:04:37.187Z,101781.08
2019-02-18T08:09:41.175Z,101777.11
2019-02-18T08:14:45.055Z,101772.54
2019-02-18T08:19:48.954Z,101768.48
2019-02-18T08:24:52.863Z,101774.55
2019-02-18T08:29:56.681Z,101773.50
2019-02-18T08:35:00.839Z,101770.83
2019-02-18T08:40:04.873Z,101771.09
2019-02-18T08:45:10.397Z,101766.39
2019-02-18T08:50:14.175Z,101764.22
2019-02-18T08:55:18.330Z,101752.91
2019-02-18T09:00:22.357Z,101750.27
2019-02-18T09:05:26.209Z,101747.08
2019-02-18T09:10:33.701Z,101742.25
2019-02-18T09:15:35.630Z,101732.98
2019-02-18T09:20:39.532Z,101729.94
2019-02-18T09:25:48.559Z,101729.34
2019-02-18T09:30:54.613Z,101734.78
2019-02-18T09:35:58.568Z,101730.95
2019-02-18T09:41:02.367Z,101726.61
2019-02-18T09:46:06.187Z,101732.77
2019-02-18T09:51:10.405Z,101736.78
2019-02-18T09:56:14.227Z,101724.52
2019-02-18T10:01:18.026Z,101722.31
2019-02-18T10:06:22.391Z,101720.49
2019-02-18T10:11:28.389Z,101713.38
2019-02-18T10:16:32.857Z,101702.27
2019-02-18T10:21:36.732Z,101705.58
2019-02-18T10:26:40.780Z,101708.84
2019-02-18T10:31:44.787Z,101704.17
2019-02-18T10:36:48.671Z,101700.36
2019-02-18T10:41:52.632Z,101694.23
2019-02-18T10:46:56.511Z,101682.27
2019-02-18T10:52:00.379Z,101679.65
2019-02-18T10:57:04.263Z,101675.33
2019-02-18T11:02:08.582Z,101671.99
2019-02-18T11:07:12.601Z,101668.31
2019-02-18T11:12:16.655Z,101670.61
2019-02-18T11:17:20.645Z,101655.48
2019-02-18T11:22:24.817Z,101649.84
2019-02-18T11:27:28.623Z,101647.56
2019-02-18T11:32:32.624Z,101648.19
2019-02-18T11:37:36.449Z,101638.31
2019-02-18T11:42:40.378Z,101630.98
2019-02-18T11:47:44.659Z,101630.95
2019-02-18T11:52:48.465Z,101628.02
2019-02-18T11:57:52.405Z,101618.52
2019-02-18T12:03:03.672Z,101603.67
2019-02-18T12:08:02.105Z,101612.46
2019-02-18T12:13:05.975Z,101611.42
2019-02-18T12:18:09.823Z,101599.62
2019-02-18T12:23:13.736Z,101588.08
2019-02-18T12:28:17.644Z,101590.61
2019-02-18T12:33:21.562Z,101576.45
2019-02-18T12:38:25.455Z,101576.45
2019-02-18T12:43:29.504Z,101573.42
2019-02-18T12:48:35.289Z,101561.84
2019-02-18T12:53:39.125Z,101553.80
2019-02-18T12:58:43.029Z,101552.56
2019-02-18T13:03:46.880Z,101535.77
2019-02-18T13:08:50.752Z,101528.97
2019-02-18T13:13:54.673Z,101519.72
2019-02-18T13:18:58.539Z,101517.72
2019-02-18T13:24:02.571Z,101497.30
2019-02-18T13:29:06.539Z,101496.27
2019-02-18T13:34:10.403Z,101485.44
2019-02-18T13:39:14.283Z,101475.59
2019-02-18T13:44:18.245Z,101459.38
2019-02-18T13:49:22.036Z,101459.41
2019-02-18T13:54:26.009Z,101456.43
2019-02-18T13:59:29.883Z,101454.05
2019-02-18T14:04:33.695Z,101451.17
2019-02-18T14:09:37.503Z,101448.25
2019-02-18T14:14:41.467Z,101439.71
2019-02-18T14:19:45.725Z,101433.61
2019-02-18T14:24:49.543Z,101431.28
2019-02-18T14:29:53.663Z,101426.39
2019-02-18T14:34:57.482Z,101421.45
2019-02-18T14:40:01.379Z,101418.38
2019-02-18T14:45:08.767Z,101413.95
2019-02-18T14:50:14.031Z,101417.44
2019-02-18T14:55:17.928Z,101415.09
2019-02-18T15:00:25.661Z,101415.97
2019-02-18T15:05:29.559Z,101418.77
2019-02-18T15:10:36.791Z,101414.12
2019-02-18T15:15:40.644Z,101412.80
2019-02-18T15:20:44.543Z,101405.69
2019-02-18T15:25:48.423Z,101395.31
2019-02-18T15:30:54.135Z,101393.72
2019-02-18T15:35:58.932Z,101397.04
2019-02-18T15:41:03.083Z,101389.58
2019-02-18T15:46:07.050Z,101379.09
2019-02-18T15:51:12.198Z,101380.21
2019-02-18T15:56:16.435Z,101379.86
2019-02-18T16:01:20.346Z,101384.52
2019-02-18T16:06:24.545Z,101380.73
2019-02-18T16:11:28.415Z,101377.23
2019-02-18T16:16:32.272Z,101375.34
2019-02-18T16:21:36.243Z,101365.93
2019-02-18T16:26:40.242Z,101365.93
2019-02-18T16:31:44.269Z,101367.50
2019-02-18T16:36:48.259Z,101373.38
2019-02-18T16:41:52.247Z,101373.38
2019-02-18T16:46:56.283Z,101372.16
2019-02-18T16:52:00.120Z,101372.16
2019-02-18T16:57:04.236Z,101383.03
2019-02-18T17:02:09.713Z,101385.27
2019-02-18T17:07:13.841Z,101386.91
2019-02-18T17:12:17.833Z,101395.91
2019-02-18T17:17:21.696Z,101390.86
2019-02-18T17:22:25.606Z,101385.40
2019-02-18T17:27:29.555Z,101384.56
2019-02-18T17:32:34.593Z,101388.64
2019-02-18T17:37:38.623Z,101388.92
2019-02-18T17:42:42.521Z,101392.59
2019-02-18T17:47:46.740Z,101396.34
2019-02-18T17:52:50.664Z,101397.77
2019-02-18T17:57:54.983Z,101386.46
2019-02-18T18:02:58.881Z,101388.64
2019-02-18T18:08:02.879Z,101390.48
2019-02-18T18:13:06.785Z,101388.64
2019-02-18T18:18:10.641Z,101394.05
2019-02-18T18:23:14.753Z,101394.52
2019-02-18T18:28:18.843Z,101390.28
2019-02-18T18:33:23.504Z,101394.79
2019-02-18T18:38:29.029Z,101394.06
2019-02-18T18:43:34.066Z,101392.59
2019-02-18T18:48:38.225Z,101385.72
2019-02-18T18:53:42.137Z,101379.23
2019-02-18T18:58:46.367Z,101383.74
2019-02-18T19:03:50.527Z,101383.47
2019-02-18T19:08:54.525Z,101387.80
2019-02-18T19:13:58.528Z,101390.66
2019-02-18T19:19:02.969Z,101385.86
2019-02-18T19:24:06.951Z,101389.26
2019-02-18T19:29:10.943Z,101376.88
2019-02-18T19:34:15.257Z,101384.61
2019-02-18T19:39:19.313Z,101392.64
2019-02-18T19:44:24.513Z,101390.58
2019-02-18T19:49:28.535Z,101397.25
2019-02-18T19:54:32.582Z,101396.72
2019-02-18T19:59:36.641Z,101402.73
2019-02-18T20:04:40.535Z,101408.33
2019-02-18T20:09:44.813Z,101397.16
2019-02-18T20:14:48.840Z,101392.92
2019-02-18T20:19:52.835Z,101397.08
2019-02-18T20:24:56.891Z,101397.15
2019-02-18T20:30:00.735Z,101390.30
2019-02-18T20:35:05.248Z,101403.08
2019-02-18T20:40:10.988Z,101403.63
2019-02-18T20:45:17.015Z,101399.77
2019-02-18T20:50:21.007Z,101408.69
2019-02-18T20:55:25.087Z,101420.67
2019-02-18T21:00:28.983Z,101407.94
2019-02-18T21:05:33.040Z,101409.30
2019-02-18T21:10:37.030Z,101414.67
2019-02-18T21:15:40.973Z,101412.14
2019-02-18T21:20:44.801Z,101392.95
2019-02-18T21:25:48.787Z,101398.20
2019-02-18T21:30:52.907Z,101399.55
2019-02-18T21:35:56.858Z,101399.59
2019-02-18T21:41:00.857Z,101403.58
2019-02-18T21:46:05.101Z,101405.36
2019-02-18T21:51:09.087Z,101402.34
2019-02-18T21:56:13.150Z,101401.95
2019-02-18T22:01:17.168Z,101402.89
2019-02-18T22:06:21.209Z,101393.78
2019-02-18T22:11:25.227Z,101398.22
2019-02-18T22:16:29.327Z,101402.20
2019-02-18T22:21:33.349Z,101407.48
2019-02-18T22:26:37.331Z,101406.63
2019-02-18T22:31:41.233Z,101404.47
2019-02-18T22:36:47.044Z,101397.91
2019-02-18T22:41:51.007Z,101400.14
2019-02-18T22:46:54.876Z,101403.21
2019-02-18T22:51:58.748Z,101398.88
2019-02-18T22:57:02.583Z,101401.07
2019-02-18T23:02:06.768Z,101414.17
2019-02-18T23:07:10.621Z,101405.91
2019-02-18T23:12:14.519Z,101412.88
2019-02-18T23:17:18.467Z,101416.37
2019-02-18T23:22:24.063Z,101415.95
2019-02-18T23:27:29.092Z,101424.65
2019-02-18T23:32:33.459Z,101434.22
2019-02-18T23:37:37.983Z,101445.98
2019-02-18T23:42:42.819Z,101454.27
2019-02-18T23:47:46.688Z,101455.14
2019-02-18T23:52:50.678Z,101461.13
2019-02-18T23:57:54.584Z,101466.28
